createdAt,value
2018-07-09T00:02:01.828Z,16.70
2018-07-09T00:04:06.248Z,16.70
2018-07-09T00:06:10.226Z,16.60
2018-07-09T00:08:14.766Z,16.60
2018-07-09T00:11:21.829Z,16.60
2018-07-09T00:13:26.376Z,16.60
2018-07-09T00:15:30.253Z,16.60
2018-07-09T00:17:34.321Z,16.60
2018-07-09T00:19:38.114Z,16.60
2018-07-09T00:21:42.045Z,16.60
2018-07-09T00:23:45.898Z,16.60
2018-07-09T00:25:50.539Z,16.60
2018-07-09T00:27:54.353Z,16.60
2018-07-09T00:29:58.437Z,16.60
2018-07-09T00:32:02.232Z,16.50
2018-07-09T00:34:06.220Z,16.50
2018-07-09T00:36:10.071Z,16.50
2018-07-09T00:38:14.010Z,16.50
2018-07-09T00:40:17.850Z,16.40
2018-07-09T00:42:21.862Z,16.50
2018-07-09T00:44:27.076Z,16.50
2018-07-09T00:46:30.949Z,16.40
2018-07-09T00:48:34.936Z,16.30
2018-07-09T00:50:38.762Z,16.40
2018-07-09T00:52:42.738Z,16.50
2018-07-09T00:54:46.540Z,16.40
2018-07-09T00:56:50.897Z,16.40
2018-07-09T00:58:54.736Z,16.20
2018-07-09T01:00:58.758Z,16.30
2018-07-09T01:03:02.514Z,16.30
2018-07-09T01:05:06.953Z,16.20
2018-07-09T01:07:10.760Z,16.20
2018-07-09T01:09:14.714Z,16.20
2018-07-09T01:11:29.706Z,16.20
2018-07-09T01:13:40.547Z,16.10
2018-07-09T01:15:44.487Z,16.20
2018-07-09T01:17:48.261Z,16.10
2018-07-09T01:19:52.225Z,16.10
2018-07-09T01:21:56.085Z,16.10
2018-07-09T01:24:00.124Z,16.10
2018-07-09T01:26:04.574Z,16.00
2018-07-09T01:28:08.449Z,15.90
2018-07-09T01:30:14.356Z,15.80
2018-07-09T01:32:18.261Z,15.90
2018-07-09T01:34:22.113Z,15.90
2018-07-09T01:36:26.072Z,15.80
2018-07-09T01:38:29.878Z,15.70
2018-07-09T01:40:34.004Z,15.60
2018-07-09T01:42:37.834Z,15.50
2018-07-09T01:44:41.775Z,15.40
2018-07-09T01:46:45.615Z,15.40
2018-07-09T01:48:49.576Z,15.40
2018-07-09T01:50:53.408Z,15.40
2018-07-09T01:52:57.325Z,15.30
2018-07-09T01:55:01.487Z,15.30
2018-07-09T01:57:05.703Z,15.40
2018-07-09T01:59:09.628Z,15.40
2018-07-09T02:01:13.605Z,15.30
2018-07-09T02:03:17.362Z,15.20
2018-07-09T02:05:21.312Z,15.10
2018-07-09T02:07:25.096Z,15.20
2018-07-09T02:09:29.043Z,15.00
2018-07-09T02:11:32.845Z,15.00
2018-07-09T02:13:36.812Z,14.90
2018-07-09T02:15:40.609Z,14.80
2018-07-09T02:17:44.679Z,14.80
2018-07-09T02:19:48.528Z,14.90
2018-07-09T02:21:52.531Z,15.00
2018-07-09T02:23:56.391Z,15.00
2018-07-09T02:26:00.287Z,14.90
2018-07-09T02:28:04.115Z,14.70
2018-07-09T02:30:08.114Z,14.90
2018-07-09T02:32:11.959Z,14.80
2018-07-09T02:34:15.888Z,14.80
2018-07-09T02:36:19.685Z,14.80
2018-07-09T02:38:23.630Z,14.80
2018-07-09T02:40:27.415Z,14.90
2018-07-09T02:42:31.320Z,15.00
2018-07-09T02:44:35.137Z,14.80
2018-07-09T02:46:39.118Z,14.90
2018-07-09T02:48:42.954Z,14.90
2018-07-09T02:50:46.916Z,14.90
2018-07-09T02:52:50.688Z,14.70
2018-07-09T02:54:54.617Z,14.60
2018-07-09T02:56:58.395Z,14.50
2018-07-09T02:59:02.350Z,14.40
2018-07-09T03:01:06.643Z,14.50
2018-07-09T03:03:10.547Z,14.40
2018-07-09T03:05:14.351Z,14.40
2018-07-09T03:07:18.561Z,14.40
2018-07-09T03:09:22.673Z,14.50
2018-07-09T03:11:26.605Z,14.40
2018-07-09T03:13:32.393Z,14.40
2018-07-09T03:15:36.335Z,14.40
2018-07-09T03:17:41.486Z,14.50
2018-07-09T03:19:45.571Z,14.40
2018-07-09T03:21:49.363Z,14.30
2018-07-09T03:23:53.732Z,14.40
2018-07-09T03:25:57.546Z,14.50
2018-07-09T03:28:01.712Z,14.60
2018-07-09T03:30:05.643Z,14.50
2018-07-09T03:32:09.554Z,14.50
2018-07-09T03:34:13.357Z,14.50
2018-07-09T03:36:17.260Z,14.50
2018-07-09T03:38:21.044Z,14.50
2018-07-09T03:40:24.987Z,14.50
2018-07-09T03:42:28.955Z,14.50
2018-07-09T03:44:32.952Z,14.30
2018-07-09T03:46:36.904Z,14.30
2018-07-09T03:48:40.800Z,14.40
2018-07-09T03:50:44.646Z,14.40
2018-07-09T03:52:48.615Z,14.40
2018-07-09T03:54:52.399Z,14.40
2018-07-09T03:56:56.385Z,14.40
2018-07-09T03:59:00.183Z,14.50
2018-07-09T04:01:04.129Z,14.60
2018-07-09T04:03:08.145Z,14.50
2018-07-09T04:07:15.433Z,14.60
2018-07-09T04:09:19.400Z,14.50
2018-07-09T04:11:23.197Z,14.50
2018-07-09T04:13:28.209Z,14.50
2018-07-09T04:17:35.642Z,14.60
2018-07-09T04:19:39.459Z,14.80
2018-07-09T04:21:43.525Z,14.70
2018-07-09T04:24:19.342Z,14.60
2018-07-09T04:26:40.932Z,14.80
2018-07-09T04:28:44.831Z,14.60
2018-07-09T04:30:49.153Z,14.70
2018-07-09T04:32:53.084Z,14.80
2018-07-09T04:34:57.070Z,14.80
2018-07-09T04:37:01.012Z,14.90
2018-07-09T04:39:06.224Z,15.00
2018-07-09T04:41:10.187Z,15.10
2018-07-09T04:43:14.021Z,15.20
2018-07-09T04:45:17.931Z,15.30
2018-07-09T04:47:21.720Z,15.20
2018-07-09T04:49:25.686Z,15.10
2018-07-09T04:51:29.582Z,15.30
2018-07-09T04:53:33.653Z,15.50
2018-07-09T04:55:37.546Z,15.60
2018-07-09T04:57:41.512Z,15.70
2018-07-09T04:59:45.299Z,15.90
2018-07-09T05:01:49.223Z,16.00
2018-07-09T05:03:53.027Z,16.10
2018-07-09T05:05:56.938Z,16.10
2018-07-09T05:08:01.071Z,16.30
2018-07-09T05:10:06.140Z,16.40
2018-07-09T05:12:10.110Z,16.40
2018-07-09T05:14:13.877Z,16.40
2018-07-09T05:16:17.792Z,16.50
2018-07-09T05:18:21.578Z,16.70
2018-07-09T05:20:25.484Z,16.80
2018-07-09T05:22:29.629Z,17.00
2018-07-09T05:24:33.536Z,17.00
2018-07-09T05:26:37.339Z,17.20
2018-07-09T05:28:41.260Z,17.40
2018-07-09T05:30:45.050Z,17.60
2018-07-09T05:32:48.940Z,17.30
2018-07-09T05:34:52.782Z,17.20
2018-07-09T05:36:56.695Z,17.40
2018-07-09T05:39:01.048Z,17.60
2018-07-09T05:41:05.002Z,17.70
2018-07-09T05:43:08.796Z,17.80
2018-07-09T05:45:12.765Z,18.00
2018-07-09T05:47:16.544Z,18.00
2018-07-09T05:51:24.226Z,17.90
2018-07-09T05:53:28.185Z,18.20
2018-07-09T05:55:31.997Z,18.60
2018-07-09T05:57:35.920Z,18.90
2018-07-09T05:59:39.701Z,18.40
2018-07-09T06:01:43.589Z,18.10
2018-07-09T06:03:47.379Z,17.80
2018-07-09T06:05:51.305Z,18.00
2018-07-09T06:07:55.090Z,18.40
2018-07-09T06:09:59.082Z,19.00
2018-07-09T06:12:02.873Z,19.20
2018-07-09T06:14:06.810Z,19.20
2018-07-09T06:16:10.650Z,19.30
2018-07-09T06:18:14.753Z,18.70
2018-07-09T06:20:18.619Z,18.20
2018-07-09T06:22:22.542Z,18.80
2018-07-09T06:24:26.426Z,19.20
2018-07-09T06:26:30.462Z,18.90
2018-07-09T06:28:34.306Z,18.80
2018-07-09T06:30:38.475Z,19.50
2018-07-09T06:32:42.398Z,20.00
2018-07-09T06:34:46.748Z,19.50
2018-07-09T06:36:50.526Z,19.70
2018-07-09T06:38:55.806Z,19.60
2018-07-09T06:40:59.808Z,20.20
2018-07-09T06:43:03.673Z,20.30
2018-07-09T06:45:07.623Z,20.20
2018-07-09T06:47:11.423Z,20.60
2018-07-09T06:49:15.695Z,20.60
2018-07-09T06:51:19.551Z,20.30
2018-07-09T06:53:23.497Z,20.90
2018-07-09T06:55:27.310Z,21.40
2018-07-09T06:57:31.229Z,21.60
2018-07-09T06:59:35.089Z,20.70
2018-07-09T07:01:38.969Z,19.50
2018-07-09T07:03:42.792Z,19.80
2018-07-09T07:05:46.802Z,19.50
2018-07-09T07:07:50.714Z,19.40
2018-07-09T07:09:54.648Z,19.10
2018-07-09T07:12:24.669Z,19.20
2018-07-09T07:14:29.348Z,19.50
2018-07-09T07:16:33.174Z,19.40
2018-07-09T07:18:37.178Z,19.30
2018-07-09T07:20:41.009Z,19.40
2018-07-09T07:22:45.059Z,19.70
2018-07-09T07:24:48.884Z,19.60
2018-07-09T07:26:52.815Z,19.70
2018-07-09T07:28:56.602Z,19.70
2018-07-09T07:31:00.561Z,19.60
2018-07-09T07:33:04.662Z,19.60
2018-07-09T07:37:12.038Z,19.70
2018-07-09T07:39:15.987Z,19.40
2018-07-09T07:41:19.798Z,19.60
2018-07-09T07:43:23.729Z,19.20
2018-07-09T07:45:27.580Z,19.60
2018-07-09T07:47:31.598Z,19.70
2018-07-09T07:49:35.468Z,20.00
2018-07-09T07:51:39.515Z,20.00
2018-07-09T07:53:43.373Z,20.70
2018-07-09T07:55:47.346Z,21.00
2018-07-09T07:57:51.180Z,21.10
2018-07-09T07:59:55.130Z,22.10
2018-07-09T08:01:58.904Z,22.60
2018-07-09T08:04:02.811Z,22.30
2018-07-09T08:06:08.460Z,22.60
2018-07-09T08:08:12.373Z,22.00
2018-07-09T08:10:16.226Z,22.00
2018-07-09T08:14:24.068Z,22.80
2018-07-09T08:16:27.976Z,23.30
2018-07-09T08:18:31.781Z,23.20
2018-07-09T08:20:35.708Z,23.90
2018-07-09T08:22:39.492Z,24.10
2018-07-09T08:24:43.414Z,24.40
2018-07-09T08:26:47.209Z,23.80
2018-07-09T08:28:51.149Z,23.60
2018-07-09T08:30:54.969Z,24.10
2018-07-09T08:32:58.903Z,24.50
2018-07-09T08:35:02.673Z,25.30
2018-07-09T08:37:06.621Z,25.50
2018-07-09T08:39:10.457Z,25.10
2018-07-09T08:41:14.417Z,24.90
2018-07-09T08:43:18.255Z,25.20
2018-07-09T08:45:22.377Z,25.60
2018-07-09T08:47:26.229Z,24.80
2018-07-09T08:49:30.139Z,25.40
2018-07-09T08:51:34.006Z,25.80
2018-07-09T08:53:38.014Z,25.20
2018-07-09T08:55:41.807Z,26.10
2018-07-09T08:57:45.680Z,26.30
2018-07-09T08:59:49.469Z,26.70
2018-07-09T09:01:53.385Z,26.60
2018-07-09T09:03:57.252Z,26.20
2018-07-09T09:06:01.115Z,25.60
2018-07-09T09:08:04.992Z,23.50
2018-07-09T09:10:08.941Z,23.80
2018-07-09T09:12:12.763Z,24.70
2018-07-09T09:14:16.729Z,25.10
2018-07-09T09:16:20.544Z,25.40
2018-07-09T09:18:24.468Z,25.30
2018-07-09T09:20:28.281Z,25.60
2018-07-09T09:22:32.226Z,25.70
2018-07-09T09:24:36.338Z,26.00
2018-07-09T09:26:40.248Z,26.70
2018-07-09T09:28:44.027Z,26.90
2018-07-09T09:30:48.023Z,27.00
2018-07-09T09:32:52.017Z,26.60
2018-07-09T09:34:56.038Z,25.70
2018-07-09T09:36:59.892Z,26.00
2018-07-09T09:39:05.505Z,26.60
2018-07-09T09:41:09.460Z,26.30
2018-07-09T09:45:16.896Z,26.70
2018-07-09T09:47:20.751Z,26.80
2018-07-09T09:49:24.640Z,27.40
2018-07-09T09:51:28.486Z,27.60
2018-07-09T09:53:32.395Z,27.70
2018-07-09T09:55:36.729Z,27.60
2018-07-09T09:57:42.345Z,26.80
2018-07-09T09:59:46.229Z,27.10
2018-07-09T10:01:50.038Z,27.70
2018-07-09T10:03:53.970Z,28.00
2018-07-09T10:05:57.880Z,27.80
2018-07-09T10:08:01.833Z,27.80
2018-07-09T10:10:05.719Z,28.10
2018-07-09T10:12:09.690Z,27.80
2018-07-09T10:14:13.462Z,26.50
2018-07-09T10:16:18.460Z,25.80
2018-07-09T10:18:22.326Z,26.40
2018-07-09T10:20:26.308Z,26.80
2018-07-09T10:22:30.268Z,26.20
2018-07-09T10:24:34.167Z,27.00
2018-07-09T10:26:38.048Z,27.90
2018-07-09T10:28:42.070Z,27.70
2018-07-09T10:30:45.850Z,27.40
2018-07-09T10:32:49.757Z,27.40
2018-07-09T10:34:53.604Z,26.30
2018-07-09T10:36:57.540Z,25.30
2018-07-09T10:39:01.316Z,24.60
2018-07-09T10:41:05.279Z,24.50
2018-07-09T10:43:09.188Z,25.00
2018-07-09T10:45:12.683Z,25.20
2018-07-09T10:47:16.494Z,24.70
2018-07-09T10:49:20.383Z,24.60
2018-07-09T10:51:24.214Z,24.00
2018-07-09T10:53:28.149Z,23.80
2018-07-09T10:55:31.964Z,23.70
2018-07-09T10:57:35.946Z,24.10
2018-07-09T10:59:39.796Z,25.50
2018-07-09T11:01:43.814Z,26.50
2018-07-09T11:03:47.622Z,27.40
2018-07-09T11:05:51.505Z,26.70
2018-07-09T11:07:55.269Z,26.40
2018-07-09T11:09:59.229Z,26.90
2018-07-09T11:14:06.568Z,26.80
2018-07-09T11:16:10.415Z,25.40
2018-07-09T11:18:14.410Z,26.60
2018-07-09T11:20:18.215Z,26.90
2018-07-09T11:22:22.158Z,25.90
2018-07-09T11:24:25.948Z,26.20
2018-07-09T11:26:29.931Z,26.50
2018-07-09T11:28:33.767Z,25.90
2018-07-09T11:30:37.726Z,25.20
2018-07-09T11:32:41.518Z,24.90
2018-07-09T11:34:45.465Z,24.80
2018-07-09T11:36:49.250Z,25.10
2018-07-09T11:38:53.120Z,25.80
2018-07-09T11:40:57.054Z,25.70
2018-07-09T11:43:00.968Z,25.70
2018-07-09T11:45:04.815Z,25.40
2018-07-09T11:47:08.781Z,24.80
2018-07-09T11:49:12.965Z,25.00
2018-07-09T11:51:16.900Z,26.00
2018-07-09T11:53:20.689Z,26.60
2018-07-09T11:55:24.599Z,26.60
2018-07-09T11:57:28.396Z,27.10
2018-07-09T11:59:32.312Z,26.90
2018-07-09T12:01:36.186Z,26.00
2018-07-09T12:03:40.111Z,25.80
2018-07-09T12:05:47.186Z,25.70
2018-07-09T12:07:51.630Z,25.90
2018-07-09T12:09:55.439Z,26.30
2018-07-09T12:12:00.316Z,26.90
2018-07-09T12:14:04.148Z,26.70
2018-07-09T12:16:08.060Z,26.50
2018-07-09T12:18:11.898Z,26.60
2018-07-09T12:20:15.846Z,26.10
2018-07-09T12:22:19.720Z,25.60
2018-07-09T12:24:23.702Z,25.40
2018-07-09T12:26:27.520Z,25.40
2018-07-09T12:28:31.571Z,25.50
2018-07-09T12:30:35.423Z,25.60
2018-07-09T12:32:39.387Z,25.10
2018-07-09T12:34:43.302Z,24.90
2018-07-09T12:36:47.369Z,25.10
2018-07-09T12:38:51.173Z,25.20
2018-07-09T12:40:55.163Z,25.50
2018-07-09T12:42:59.104Z,25.50
2018-07-09T12:45:02.978Z,26.00
2018-07-09T12:47:06.852Z,25.70
2018-07-09T12:49:10.845Z,26.10
2018-07-09T12:51:14.694Z,25.90
2018-07-09T12:53:18.589Z,25.90
2018-07-09T12:55:22.439Z,26.10
2018-07-09T12:57:26.333Z,25.80
2018-07-09T12:59:30.203Z,25.40
2018-07-09T13:01:34.156Z,25.80
2018-07-09T13:03:37.922Z,25.90
2018-07-09T13:05:42.932Z,26.00
2018-07-09T13:07:46.838Z,25.70
2018-07-09T13:09:50.773Z,25.80
2018-07-09T13:11:54.591Z,25.80
2018-07-09T13:13:58.529Z,25.20
2018-07-09T13:16:02.336Z,24.80
2018-07-09T13:18:06.320Z,24.80
2018-07-09T13:20:10.162Z,25.00
2018-07-09T13:22:14.070Z,25.30
2018-07-09T13:24:17.868Z,25.20
2018-07-09T13:26:21.877Z,25.10
2018-07-09T13:28:25.690Z,25.50
2018-07-09T13:30:29.625Z,25.60
2018-07-09T13:32:33.910Z,25.30
2018-07-09T13:34:37.873Z,25.40
2018-07-09T13:36:41.767Z,25.50
2018-07-09T13:38:45.670Z,25.50
2018-07-09T13:40:49.579Z,25.60
2018-07-09T13:42:53.487Z,25.70
2018-07-09T13:44:57.372Z,25.50
2018-07-09T13:47:01.345Z,25.40
2018-07-09T13:49:05.280Z,25.90
2018-07-09T13:51:09.257Z,26.10
2018-07-09T13:53:13.129Z,26.30
2018-07-09T13:55:17.016Z,26.50
2018-07-09T13:57:20.874Z,26.60
2018-07-09T13:59:24.872Z,26.50
2018-07-09T14:01:28.682Z,26.10
2018-07-09T14:03:32.581Z,25.70
2018-07-09T14:05:36.409Z,25.30
2018-07-09T14:07:40.515Z,25.10
2018-07-09T14:09:57.713Z,25.10
2018-07-09T14:12:01.641Z,25.20
2018-07-09T14:14:05.779Z,25.00
2018-07-09T14:16:09.694Z,24.90
2018-07-09T14:18:13.510Z,24.60
2018-07-09T14:20:34.710Z,24.50
2018-07-09T14:22:38.887Z,24.20
2018-07-09T14:24:42.791Z,24.10
2018-07-09T14:26:46.889Z,23.90
2018-07-09T14:28:50.686Z,23.90
2018-07-09T14:30:54.708Z,24.00
2018-07-09T14:32:58.670Z,24.10
2018-07-09T14:35:02.627Z,24.20
2018-07-09T14:37:06.482Z,24.20
2018-07-09T14:39:10.347Z,24.00
2018-07-09T14:41:14.190Z,24.00
2018-07-09T14:45:21.478Z,23.80
2018-07-09T14:47:25.456Z,23.80
2018-07-09T14:49:29.234Z,23.60
2018-07-09T14:51:33.169Z,23.60
2018-07-09T14:53:36.964Z,23.70
2018-07-09T14:55:40.878Z,23.60
2018-07-09T14:57:44.712Z,23.70
2018-07-09T14:59:48.625Z,23.70
2018-07-09T15:01:52.456Z,23.70
2018-07-09T15:03:56.336Z,23.80
2018-07-09T15:06:00.151Z,23.90
2018-07-09T15:08:04.123Z,23.90
2018-07-09T15:10:07.908Z,23.80
2018-07-09T15:12:11.892Z,23.80
2018-07-09T15:14:15.726Z,23.50
2018-07-09T15:16:21.059Z,23.50
2018-07-09T15:18:24.996Z,23.40
2018-07-09T15:22:32.500Z,23.00
2018-07-09T15:24:36.367Z,22.90
2018-07-09T15:26:40.359Z,22.80
2018-07-09T15:28:44.221Z,23.00
2018-07-09T15:30:48.156Z,23.00
2018-07-09T15:32:51.995Z,23.10
2018-07-09T15:34:56.003Z,23.30
2018-07-09T15:36:59.794Z,23.40
2018-07-09T15:39:03.906Z,23.50
2018-07-09T15:41:07.730Z,23.60
2018-07-09T15:43:11.808Z,23.60
2018-07-09T15:45:15.631Z,23.60
2018-07-09T15:47:19.859Z,23.80
2018-07-09T15:49:24.069Z,23.80
2018-07-09T15:51:30.847Z,24.20
2018-07-09T15:53:35.196Z,24.30
2018-07-09T15:55:39.662Z,24.00
2018-07-09T15:57:43.888Z,24.00
2018-07-09T15:59:48.025Z,24.10
2018-07-09T16:01:52.256Z,24.20
2018-07-09T16:03:56.193Z,24.20
2018-07-09T16:06:00.299Z,24.00
2018-07-09T16:08:04.492Z,24.00
2018-07-09T16:10:08.869Z,24.10
2018-07-09T16:12:13.010Z,24.00
2018-07-09T16:14:17.145Z,23.80
2018-07-09T16:16:21.766Z,23.90
2018-07-09T16:18:25.956Z,23.90
2018-07-09T16:20:30.183Z,23.60
2018-07-09T16:22:34.564Z,23.30
2018-07-09T16:24:38.600Z,23.30
2018-07-09T16:26:42.722Z,23.20
2018-07-09T16:28:47.133Z,23.30
2018-07-09T16:30:51.524Z,23.00
2018-07-09T16:32:55.656Z,22.90
2018-07-09T16:34:59.911Z,22.90
2018-07-09T16:37:03.751Z,22.70
2018-07-09T16:39:08.084Z,22.70
2018-07-09T16:41:12.012Z,22.80
2018-07-09T16:43:15.993Z,22.80
2018-07-09T16:45:19.791Z,22.90
2018-07-09T16:47:23.823Z,22.80
2018-07-09T16:49:27.944Z,22.70
2018-07-09T16:51:32.045Z,22.70
2018-07-09T16:53:35.919Z,22.70
2018-07-09T16:55:39.860Z,22.70
2018-07-09T16:57:43.708Z,22.80
2018-07-09T16:59:47.629Z,22.80
2018-07-09T17:01:51.514Z,22.80
2018-07-09T17:03:55.485Z,22.80
2018-07-09T17:05:59.289Z,23.00
2018-07-09T17:08:03.229Z,23.00
2018-07-09T17:10:07.080Z,23.00
2018-07-09T17:12:11.739Z,23.00
2018-07-09T17:14:15.701Z,23.00
2018-07-09T17:16:19.612Z,22.90
2018-07-09T17:18:23.445Z,22.80
2018-07-09T17:20:27.412Z,22.60
2018-07-09T17:22:31.292Z,22.60
2018-07-09T17:24:35.210Z,22.40
2018-07-09T17:26:39.155Z,22.40
2018-07-09T17:28:42.999Z,22.30
2018-07-09T17:30:46.941Z,22.30
2018-07-09T17:32:50.956Z,22.20
2018-07-09T17:34:54.761Z,22.20
2018-07-09T17:36:58.701Z,22.30
2018-07-09T17:39:02.539Z,22.20
2018-07-09T17:41:06.669Z,22.30
2018-07-09T17:43:10.519Z,22.30
2018-07-09T17:45:14.456Z,22.30
2018-07-09T17:49:21.942Z,22.30
2018-07-09T17:51:25.780Z,22.10
2018-07-09T17:53:29.760Z,22.10
2018-07-09T17:55:33.564Z,22.00
2018-07-09T17:57:37.558Z,21.90
2018-07-09T17:59:41.468Z,21.90
2018-07-09T18:01:45.417Z,22.00
2018-07-09T18:03:49.538Z,22.00
2018-07-09T18:05:53.508Z,22.10
2018-07-09T18:07:58.152Z,22.10
2018-07-09T18:10:02.083Z,22.20
2018-07-09T18:12:06.108Z,22.20
2018-07-09T18:14:10.352Z,22.20
2018-07-09T18:16:14.260Z,22.00
2018-07-09T18:18:18.787Z,22.00
2018-07-09T18:20:22.889Z,21.90
2018-07-09T18:22:26.892Z,22.00
2018-07-09T18:24:30.745Z,21.90
2018-07-09T18:26:34.759Z,21.80
2018-07-09T18:28:39.883Z,21.70
2018-07-09T18:30:44.070Z,21.70
2018-07-09T18:32:47.965Z,21.60
2018-07-09T18:34:51.977Z,21.60
2018-07-09T18:36:55.870Z,21.60
2018-07-09T18:38:59.935Z,21.60
2018-07-09T18:41:03.813Z,21.50
2018-07-09T18:43:07.777Z,21.60
2018-07-09T18:45:11.728Z,21.60
2018-07-09T18:47:15.952Z,21.50
2018-07-09T18:49:19.914Z,21.40
2018-07-09T18:51:23.899Z,21.50
2018-07-09T18:53:27.878Z,21.40
2018-07-09T18:55:31.856Z,21.30
2018-07-09T18:57:35.741Z,21.30
2018-07-09T18:59:41.350Z,21.40
2018-07-09T19:01:45.667Z,21.50
2018-07-09T19:03:49.522Z,21.40
2018-07-09T19:06:36.908Z,21.40
2018-07-09T19:08:40.826Z,21.30
2018-07-09T19:10:44.900Z,21.10
2018-07-09T19:12:48.912Z,21.10
2018-07-09T19:14:53.285Z,21.00
2018-07-09T19:18:12.382Z,21.00
2018-07-09T19:21:46.743Z,20.90
2018-07-09T19:23:49.443Z,20.80
2018-07-09T19:25:51.926Z,20.80
2018-07-09T19:27:54.815Z,20.80
2018-07-09T19:29:57.475Z,20.70
2018-07-09T19:32:00.158Z,20.60
2018-07-09T19:34:02.721Z,20.60
2018-07-09T19:36:05.752Z,20.40
2018-07-09T19:38:08.269Z,20.30
2018-07-09T19:40:10.868Z,20.20
2018-07-09T19:42:13.405Z,20.10
2018-07-09T19:44:16.016Z,20.10
2018-07-09T19:46:18.550Z,20.10
2018-07-09T19:48:21.196Z,20.10
2018-07-09T19:50:23.801Z,20.10
2018-07-09T19:54:29.384Z,20.10
2018-07-09T19:56:32.036Z,20.10
2018-07-09T20:00:39.142Z,19.90
2018-07-09T20:02:41.704Z,19.90
2018-07-09T20:04:44.812Z,19.90
2018-07-09T20:06:47.631Z,19.80
2018-07-09T20:08:55.685Z,19.80
2018-07-09T20:11:03.571Z,19.90
2018-07-09T20:13:11.370Z,19.80
2018-07-09T20:15:19.304Z,19.70
2018-07-09T20:17:27.919Z,19.70
2018-07-09T20:19:30.626Z,19.60
2018-07-09T20:21:33.255Z,19.50
2018-07-09T20:23:36.081Z,19.40
2018-07-09T20:25:38.807Z,19.30
2018-07-09T20:27:41.620Z,19.20
2018-07-09T20:29:44.287Z,19.30
2018-07-09T20:31:46.988Z,19.20
2018-07-09T20:33:49.611Z,19.30
2018-07-09T20:35:52.361Z,19.30
2018-07-09T20:37:54.945Z,19.30
2018-07-09T20:39:57.924Z,19.10
2018-07-09T20:42:00.670Z,19.10
2018-07-09T20:44:03.966Z,19.10
2018-07-09T20:46:06.690Z,19.20
2018-07-09T20:48:09.639Z,19.20
2018-07-09T20:50:12.583Z,19.20
2018-07-09T20:52:15.605Z,19.00
2018-07-09T20:54:18.492Z,18.80
2018-07-09T20:56:21.208Z,18.60
2018-07-09T20:58:24.226Z,18.60
2018-07-09T21:00:26.993Z,18.60
2018-07-09T21:02:29.511Z,18.60
2018-07-09T21:04:32.695Z,18.70
2018-07-09T21:06:35.335Z,18.70
2018-07-09T21:08:38.039Z,18.60
2018-07-09T21:10:40.621Z,18.50
2018-07-09T21:12:59.025Z,18.50
2018-07-09T21:15:01.901Z,18.60
2018-07-09T21:17:04.337Z,18.60
2018-07-09T21:19:07.357Z,18.60
2018-07-09T21:21:10.114Z,18.50
2018-07-09T21:23:12.963Z,18.40
2018-07-09T21:25:16.513Z,18.40
2018-07-09T21:27:19.222Z,18.40
2018-07-09T21:29:21.824Z,18.40
2018-07-09T21:31:24.544Z,18.40
2018-07-09T21:33:27.145Z,18.50
2018-07-09T21:35:30.060Z,18.30
2018-07-09T21:37:32.671Z,18.20
2018-07-09T21:39:35.416Z,18.20
2018-07-09T21:41:38.123Z,18.20
2018-07-09T21:43:41.102Z,18.00
2018-07-09T21:45:43.813Z,18.00
2018-07-09T21:47:46.575Z,18.00
2018-07-09T21:49:49.306Z,18.10
2018-07-09T21:51:52.340Z,18.00
2018-07-09T21:53:54.901Z,18.10
2018-07-09T21:55:57.681Z,18.00
2018-07-09T21:58:00.200Z,18.00
2018-07-09T22:00:02.853Z,17.90
2018-07-09T22:02:05.471Z,17.90
2018-07-09T22:04:08.281Z,18.00
2018-07-09T22:06:10.820Z,18.10
2018-07-09T22:08:13.607Z,18.00
2018-07-09T22:10:16.310Z,18.00
2018-07-09T22:12:19.130Z,18.00
2018-07-09T22:14:21.778Z,17.90
2018-07-09T22:16:24.559Z,18.00
2018-07-09T22:18:27.261Z,17.90
2018-07-09T22:20:31.339Z,17.90
2018-07-09T22:22:34.587Z,18.00
2018-07-09T22:24:37.275Z,17.90
2018-07-09T22:26:39.844Z,17.70
2018-07-09T22:28:42.487Z,17.80
2018-07-09T22:30:46.734Z,17.80
2018-07-09T22:32:50.970Z,17.70
2018-07-09T22:34:55.285Z,17.70
2018-07-09T22:36:59.532Z,17.80
2018-07-09T22:39:03.783Z,17.70
2018-07-09T22:41:08.016Z,17.60
2018-07-09T22:43:23.167Z,17.60
2018-07-09T22:45:27.267Z,17.60
2018-07-09T22:47:31.414Z,17.60
2018-07-09T22:49:35.688Z,17.60
2018-07-09T22:51:39.712Z,17.60
2018-07-09T22:53:43.791Z,17.60
2018-07-09T22:55:58.896Z,17.50
2018-07-09T22:58:02.972Z,17.30
2018-07-09T23:00:07.005Z,17.30
2018-07-09T23:02:11.406Z,17.30
2018-07-09T23:04:15.419Z,17.40
2018-07-09T23:06:19.502Z,17.20
2018-07-09T23:08:23.644Z,17.20
2018-07-09T23:13:47.775Z,17.10
2018-07-09T23:16:19.038Z,17.00
2018-07-09T23:19:06.478Z,17.00
2018-07-09T23:21:48.161Z,17.00
2018-07-09T23:23:50.862Z,16.80
2018-07-09T23:25:53.492Z,16.80
2018-07-09T23:27:56.202Z,16.90
2018-07-09T23:29:58.913Z,16.90
2018-07-09T23:32:01.627Z,17.00
2018-07-09T23:34:04.149Z,16.80
2018-07-09T23:36:06.838Z,16.80
2018-07-09T23:38:09.393Z,16.70
2018-07-09T23:40:12.305Z,16.80
2018-07-09T23:42:14.952Z,16.60
2018-07-09T23:44:17.656Z,16.60
2018-07-09T23:46:20.261Z,16.50
2018-07-09T23:48:23.116Z,16.50
2018-07-09T23:50:25.807Z,16.50
2018-07-09T23:52:28.580Z,16.60
2018-07-09T23:54:31.127Z,16.50
2018-07-09T23:58:54.331Z,16.60
